sensor_id;sensor_type;location;lat;lon;timestamp;pressure;altitude;pressure_sealevel;temperature;humidity
79138;BME280;68544;45.566;10.238;2023-04-12T00:02:13;99380.75;;;16.35;51.77
79138;BME280;68544;45.566;10.238;2023-04-12T00:04:39;99370.31;;;16.55;50.93
79138;BME280;68544;45.566;10.238;2023-04-12T00:07:05;99373.78;;;16.50;50.93
79138;BME280;68544;45.566;10.238;2023-04-12T00:09:31;99376.13;;;16.35;51.87
79138;BME280;68544;45.566;10.238;2023-04-12T00:11:58;99368.09;;;16.29;52.32
79138;BME280;68544;45.566;10.238;2023-04-12T00:14:24;99370.81;;;16.29;52.02
79138;BME280;68544;45.566;10.238;2023-04-12T00:16:49;99368.78;;;16.36;51.55
79138;BME280;68544;45.566;10.238;2023-04-12T00:19:15;99366.28;;;16.34;51.30
79138;BME280;68544;45.566;10.238;2023-04-12T00:21:41;99364.03;;;16.54;49.97
79138;BME280;68544;45.566;10.238;2023-04-12T00:24:07;99362.25;;;16.48;49.61
79138;BME280;68544;45.566;10.238;2023-04-12T00:26:32;99369.13;;;16.51;49.46
79138;BME280;68544;45.566;10.238;2023-04-12T00:28:57;99361.56;;;16.53;49.10
79138;BME280;68544;45.566;10.238;2023-04-12T00:31:23;99365.78;;;16.61;48.80
79138;BME280;68544;45.566;10.238;2023-04-12T00:33:48;99367.47;;;16.50;48.67
79138;BME280;68544;45.566;10.238;2023-04-12T00:36:13;99351.34;;;16.37;49.30
79138;BME280;68544;45.566;10.238;2023-04-12T00:38:40;99345.69;;;16.50;48.90
79138;BME280;68544;45.566;10.238;2023-04-12T00:41:06;99352.66;;;16.46;48.91
79138;BME280;68544;45.566;10.238;2023-04-12T00:43:32;99350.16;;;16.56;48.92
79138;BME280;68544;45.566;10.238;2023-04-12T00:45:58;99345.31;;;16.46;49.25
79138;BME280;68544;45.566;10.238;2023-04-12T00:48:24;99346.84;;;16.54;49.12
79138;BME280;68544;45.566;10.238;2023-04-12T00:50:51;99344.38;;;16.52;49.11
79138;BME280;68544;45.566;10.238;2023-04-12T00:53:19;99347.47;;;16.33;49.97
79138;BME280;68544;45.566;10.238;2023-04-12T00:55:47;99340.25;;;16.27;50.57
79138;BME280;68544;45.566;10.238;2023-04-12T00:58:13;99348.03;;;16.35;50.53
79138;BME280;68544;45.566;10.238;2023-04-12T01:00:39;99336.19;;;16.41;50.24
79138;BME280;68544;45.566;10.238;2023-04-12T01:03:04;99343.78;;;16.39;50.97
79138;BME280;68544;45.566;10.238;2023-04-12T01:05:37;99341.50;;;16.47;51.07
79138;BME280;68544;45.566;10.238;2023-04-12T01:08:23;99347.91;;;16.41;51.58
79138;BME280;68544;45.566;10.238;2023-04-12T01:10:56;99348.25;;;16.45;51.72
79138;BME280;68544;45.566;10.238;2023-04-12T01:13:35;99343.63;;;16.45;51.52
79138;BME280;68544;45.566;10.238;2023-04-12T01:16:41;99326.75;;;16.32;51.98
79138;BME280;68544;45.566;10.238;2023-04-12T01:22:10;99310.16;;;16.22;53.97
79138;BME280;68544;45.566;10.238;2023-04-12T01:27:55;99328.94;;;16.07;54.52
79138;BME280;68544;45.566;10.238;2023-04-12T01:30:22;99333.63;;;16.23;53.93
79138;BME280;68544;45.566;10.238;2023-04-12T01:32:52;99320.94;;;16.28;52.96
79138;BME280;68544;45.566;10.238;2023-04-12T01:35:20;99335.59;;;16.39;52.89
79138;BME280;68544;45.566;10.238;2023-04-12T01:37:47;99342.22;;;16.43;53.17
79138;BME280;68544;45.566;10.238;2023-04-12T01:40:12;99342.72;;;16.28;52.99
79138;BME280;68544;45.566;10.238;2023-04-12T01:42:38;99321.56;;;16.07;53.74
79138;BME280;68544;45.566;10.238;2023-04-12T01:45:06;99322.16;;;16.21;53.15
79138;BME280;68544;45.566;10.238;2023-04-12T01:47:32;99330.31;;;16.21;52.06
79138;BME280;68544;45.566;10.238;2023-04-12T01:50:24;99323.06;;;16.26;52.03
79138;BME280;68544;45.566;10.238;2023-04-12T01:53:01;99320.97;;;16.05;51.81
79138;BME280;68544;45.566;10.238;2023-04-12T01:55:29;99313.53;;;16.01;53.04
79138;BME280;68544;45.566;10.238;2023-04-12T01:57:55;99319.47;;;15.98;54.66
79138;BME280;68544;45.566;10.238;2023-04-12T02:00:22;99322.16;;;16.09;54.69
79138;BME280;68544;45.566;10.238;2023-04-12T02:02:49;99324.28;;;16.19;54.12
79138;BME280;68544;45.566;10.238;2023-04-12T02:05:14;99327.34;;;16.22;54.02
79138;BME280;68544;45.566;10.238;2023-04-12T02:07:40;99323.66;;;16.40;53.22
79138;BME280;68544;45.566;10.238;2023-04-12T02:10:06;99327.53;;;16.44;53.16
79138;BME280;68544;45.566;10.238;2023-04-12T02:12:31;99328.78;;;16.25;54.03
79138;BME280;68544;45.566;10.238;2023-04-12T02:14:57;99333.28;;;16.19;54.49
79138;BME280;68544;45.566;10.238;2023-04-12T02:17:22;99338.25;;;16.22;54.21
79138;BME280;68544;45.566;10.238;2023-04-12T02:19:48;99337.94;;;15.96;54.90
79138;BME280;68544;45.566;10.238;2023-04-12T02:22:13;99337.44;;;15.99;55.08
79138;BME280;68544;45.566;10.238;2023-04-12T02:24:39;99334.59;;;16.17;54.33
79138;BME280;68544;45.566;10.238;2023-04-12T02:27:05;99336.81;;;16.20;54.40
79138;BME280;68544;45.566;10.238;2023-04-12T02:29:31;99328.44;;;16.10;54.66
79138;BME280;68544;45.566;10.238;2023-04-12T02:31:56;99324.06;;;15.97;54.38
79138;BME280;68544;45.566;10.238;2023-04-12T02:34:21;99332.72;;;16.06;54.07
79138;BME280;68544;45.566;10.238;2023-04-12T02:36:48;99312.00;;;16.05;53.89
79138;BME280;68544;45.566;10.238;2023-04-12T02:39:13;99319.34;;;15.93;54.35
79138;BME280;68544;45.566;10.238;2023-04-12T02:41:42;99315.94;;;15.86;54.17
79138;BME280;68544;45.566;10.238;2023-04-12T02:44:07;99310.59;;;16.02;53.62
79138;BME280;68544;45.566;10.238;2023-04-12T02:46:33;99303.47;;;16.01;53.51
79138;BME280;68544;45.566;10.238;2023-04-12T02:48:58;99304.03;;;16.15;53.01
79138;BME280;68544;45.566;10.238;2023-04-12T02:51:23;99291.13;;;16.10;52.69
79138;BME280;68544;45.566;10.238;2023-04-12T02:53:49;99299.44;;;15.92;52.66
79138;BME280;68544;45.566;10.238;2023-04-12T02:56:14;99287.97;;;16.02;51.86
79138;BME280;68544;45.566;10.238;2023-04-12T02:58:43;99294.31;;;16.19;51.25
79138;BME280;68544;45.566;10.238;2023-04-12T03:01:08;99277.72;;;16.20;51.09
79138;BME280;68544;45.566;10.238;2023-04-12T03:03:37;99274.81;;;16.10;51.32
79138;BME280;68544;45.566;10.238;2023-04-12T03:06:03;99278.50;;;16.04;51.36
79138;BME280;68544;45.566;10.238;2023-04-12T03:08:29;99282.97;;;15.99;51.40
79138;BME280;68544;45.566;10.238;2023-04-12T03:10:55;99280.38;;;16.04;51.55
79138;BME280;68544;45.566;10.238;2023-04-12T03:13:20;99284.59;;;16.11;51.24
79138;BME280;68544;45.566;10.238;2023-04-12T03:15:46;99283.69;;;16.17;51.39
79138;BME280;68544;45.566;10.238;2023-04-12T03:18:12;99275.97;;;16.03;52.13
79138;BME280;68544;45.566;10.238;2023-04-12T03:20:37;99265.72;;;16.05;52.25
79138;BME280;68544;45.566;10.238;2023-04-12T03:23:03;99252.44;;;15.97;52.68
79138;BME280;68544;45.566;10.238;2023-04-12T03:25:29;99258.25;;;16.00;52.55
79138;BME280;68544;45.566;10.238;2023-04-12T03:27:54;99266.56;;;15.94;52.96
79138;BME280;68544;45.566;10.238;2023-04-12T03:30:20;99263.56;;;16.07;52.87
79138;BME280;68544;45.566;10.238;2023-04-12T03:32:45;99267.22;;;16.01;53.09
79138;BME280;68544;45.566;10.238;2023-04-12T03:35:10;99268.78;;;15.97;52.63
79138;BME280;68544;45.566;10.238;2023-04-12T03:37:39;99266.38;;;16.12;52.05
79138;BME280;68544;45.566;10.238;2023-04-12T03:40:05;99269.75;;;15.91;52.63
79138;BME280;68544;45.566;10.238;2023-04-12T03:42:31;99273.50;;;16.13;51.84
79138;BME280;68544;45.566;10.238;2023-04-12T03:44:56;99265.28;;;16.24;51.33
79138;BME280;68544;45.566;10.238;2023-04-12T03:47:22;99264.81;;;16.27;50.82
79138;BME280;68544;45.566;10.238;2023-04-12T03:49:47;99265.47;;;15.95;53.35
79138;BME280;68544;45.566;10.238;2023-04-12T03:52:12;99267.13;;;15.96;53.42
79138;BME280;68544;45.566;10.238;2023-04-12T03:54:39;99265.00;;;15.98;53.63
79138;BME280;68544;45.566;10.238;2023-04-12T03:57:05;99263.19;;;16.15;52.73
79138;BME280;68544;45.566;10.238;2023-04-12T03:59:30;99261.44;;;16.09;52.91
79138;BME280;68544;45.566;10.238;2023-04-12T04:01:57;99258.53;;;16.27;52.44
79138;BME280;68544;45.566;10.238;2023-04-12T04:04:24;99249.38;;;16.05;52.78
79138;BME280;68544;45.566;10.238;2023-04-12T04:06:49;99243.41;;;16.08;52.55
79138;BME280;68544;45.566;10.238;2023-04-12T04:09:15;99241.78;;;16.07;52.72
79138;BME280;68544;45.566;10.238;2023-04-12T04:11:41;99247.75;;;15.80;53.70
79138;BME280;68544;45.566;10.238;2023-04-12T04:14:06;99247.63;;;15.87;53.71
79138;BME280;68544;45.566;10.238;2023-04-12T04:16:32;99241.59;;;15.73;53.46
79138;BME280;68544;45.566;10.238;2023-04-12T04:18:58;99236.34;;;15.95;52.98
79138;BME280;68544;45.566;10.238;2023-04-12T04:21:23;99245.19;;;16.14;51.97
79138;BME280;68544;45.566;10.238;2023-04-12T04:23:48;99240.44;;;16.09;51.75
79138;BME280;68544;45.566;10.238;2023-04-12T04:26:16;99238.53;;;15.70;52.92
79138;BME280;68544;45.566;10.238;2023-04-12T04:28:42;99234.13;;;15.80;52.05
79138;BME280;68544;45.566;10.238;2023-04-12T04:31:11;99240.03;;;15.77;52.02
79138;BME280;68544;45.566;10.238;2023-04-12T04:33:37;99235.81;;;15.82;51.87
79138;BME280;68544;45.566;10.238;2023-04-12T04:36:03;99245.94;;;15.86;51.64
79138;BME280;68544;45.566;10.238;2023-04-12T04:38:29;99242.38;;;15.97;51.46
79138;BME280;68544;45.566;10.238;2023-04-12T04:40:57;99229.63;;;15.86;52.58
79138;BME280;68544;45.566;10.238;2023-04-12T04:43:24;99230.06;;;15.95;52.19
79138;BME280;68544;45.566;10.238;2023-04-12T04:45:53;99243.81;;;15.88;52.73
79138;BME280;68544;45.566;10.238;2023-04-12T04:48:18;99245.88;;;15.69;53.53
79138;BME280;68544;45.566;10.238;2023-04-12T04:50:45;99238.53;;;15.70;53.21
79138;BME280;68544;45.566;10.238;2023-04-12T04:53:10;99232.22;;;15.93;52.60
79138;BME280;68544;45.566;10.238;2023-04-12T04:55:35;99223.91;;;15.99;52.31
79138;BME280;68544;45.566;10.238;2023-04-12T04:58:01;99231.16;;;15.82;52.64
79138;BME280;68544;45.566;10.238;2023-04-12T05:00:26;99227.28;;;15.78;52.38
79138;BME280;68544;45.566;10.238;2023-04-12T05:02:51;99227.16;;;15.85;52.03
79138;BME280;68544;45.566;10.238;2023-04-12T05:05:17;99219.28;;;16.00;52.12
79138;BME280;68544;45.566;10.238;2023-04-12T05:07:47;99221.31;;;15.93;52.73
79138;BME280;68544;45.566;10.238;2023-04-12T05:10:12;99223.06;;;15.99;51.73
79138;BME280;68544;45.566;10.238;2023-04-12T05:12:37;99240.59;;;16.03;51.70
79138;BME280;68544;45.566;10.238;2023-04-12T05:15:03;99237.38;;;16.17;51.11
79138;BME280;68544;45.566;10.238;2023-04-12T05:17:28;99239.19;;;15.89;52.49
79138;BME280;68544;45.566;10.238;2023-04-12T05:19:54;99247.97;;;15.91;52.23
79138;BME280;68544;45.566;10.238;2023-04-12T05:22:20;99256.25;;;15.96;52.07
79138;BME280;68544;45.566;10.238;2023-04-12T05:24:46;99254.81;;;16.05;51.51
79138;BME280;68544;45.566;10.238;2023-04-12T05:27:12;99271.81;;;16.12;51.33
79138;BME280;68544;45.566;10.238;2023-04-12T05:29:38;99264.50;;;16.01;49.75
79138;BME280;68544;45.566;10.238;2023-04-12T05:32:03;99270.66;;;16.08;49.96
79138;BME280;68544;45.566;10.238;2023-04-12T05:34:28;99274.47;;;16.07;49.89
79138;BME280;68544;45.566;10.238;2023-04-12T05:36:54;99266.97;;;16.14;49.61
79138;BME280;68544;45.566;10.238;2023-04-12T05:39:20;99266.94;;;16.25;48.88
79138;BME280;68544;45.566;10.238;2023-04-12T05:41:46;99274.03;;;16.26;48.34
79138;BME280;68544;45.566;10.238;2023-04-12T05:44:11;99259.38;;;16.16;48.36
79138;BME280;68544;45.566;10.238;2023-04-12T05:46:37;99252.88;;;16.17;48.20
79138;BME280;68544;45.566;10.238;2023-04-12T05:49:02;99258.22;;;16.12;47.41
79138;BME280;68544;45.566;10.238;2023-04-12T05:51:27;99253.72;;;16.17;47.58
79138;BME280;68544;45.566;10.238;2023-04-12T05:53:53;99262.97;;;16.05;48.36
79138;BME280;68544;45.566;10.238;2023-04-12T05:56:18;99264.03;;;16.04;49.39
79138;BME280;68544;45.566;10.238;2023-04-12T05:58:43;99267.34;;;16.06;50.79
79138;BME280;68544;45.566;10.238;2023-04-12T06:01:09;99262.16;;;15.93;50.45
79138;BME280;68544;45.566;10.238;2023-04-12T06:03:34;99258.78;;;16.14;49.83
79138;BME280;68544;45.566;10.238;2023-04-12T06:06:00;99263.97;;;16.27;49.96
79138;BME280;68544;45.566;10.238;2023-04-12T06:08:26;99265.13;;;16.31;49.52
79138;BME280;68544;45.566;10.238;2023-04-12T06:10:53;99271.44;;;16.20;48.27
79138;BME280;68544;45.566;10.238;2023-04-12T06:13:18;99261.88;;;16.45;48.16
79138;BME280;68544;45.566;10.238;2023-04-12T06:15:44;99269.38;;;16.50;47.85
79138;BME280;68544;45.566;10.238;2023-04-12T06:18:09;99275.19;;;16.42;49.61
79138;BME280;68544;45.566;10.238;2023-04-12T06:20:38;99267.81;;;16.54;49.05
79138;BME280;68544;45.566;10.238;2023-04-12T06:23:04;99266.38;;;16.51;49.22
79138;BME280;68544;45.566;10.238;2023-04-12T06:25:30;99268.53;;;16.49;49.82
79138;BME280;68544;45.566;10.238;2023-04-12T06:27:56;99256.50;;;16.62;49.92
79138;BME280;68544;45.566;10.238;2023-04-12T06:30:21;99255.72;;;16.78;49.26
79138;BME280;68544;45.566;10.238;2023-04-12T06:32:46;99251.75;;;16.86;48.98
79138;BME280;68544;45.566;10.238;2023-04-12T06:35:12;99253.44;;;16.87;49.40
79138;BME280;68544;45.566;10.238;2023-04-12T06:37:37;99255.63;;;16.73;48.75
79138;BME280;68544;45.566;10.238;2023-04-12T06:40:03;99252.91;;;16.73;48.49
79138;BME280;68544;45.566;10.238;2023-04-12T06:42:28;99262.53;;;16.64;48.96
79138;BME280;68544;45.566;10.238;2023-04-12T06:44:54;99262.81;;;16.79;47.48
79138;BME280;68544;45.566;10.238;2023-04-12T06:47:19;99262.78;;;16.91;45.10
79138;BME280;68544;45.566;10.238;2023-04-12T06:49:46;99262.09;;;17.00;45.04
79138;BME280;68544;45.566;10.238;2023-04-12T06:52:12;99257.34;;;17.07;45.15
79138;BME280;68544;45.566;10.238;2023-04-12T06:54:38;99255.50;;;16.96;45.28
79138;BME280;68544;45.566;10.238;2023-04-12T06:57:08;99256.75;;;17.05;45.21
79138;BME280;68544;45.566;10.238;2023-04-12T06:59:34;99253.94;;;17.00;45.52
79138;BME280;68544;45.566;10.238;2023-04-12T07:02:00;99264.44;;;17.08;45.23
79138;BME280;68544;45.566;10.238;2023-04-12T07:04:25;99268.03;;;16.97;45.23
79138;BME280;68544;45.566;10.238;2023-04-12T07:06:50;99280.44;;;16.88;45.15
79138;BME280;68544;45.566;10.238;2023-04-12T07:09:16;99271.44;;;17.04;44.34
79138;BME280;68544;45.566;10.238;2023-04-12T07:11:41;99273.25;;;16.82;44.73
79138;BME280;68544;45.566;10.238;2023-04-12T07:14:07;99260.84;;;16.91;44.07
79138;BME280;68544;45.566;10.238;2023-04-12T07:16:32;99266.81;;;16.88;44.52
79138;BME280;68544;45.566;10.238;2023-04-12T07:18:58;99260.44;;;16.83;44.33
79138;BME280;68544;45.566;10.238;2023-04-12T07:21:24;99250.63;;;16.98;43.42
79138;BME280;68544;45.566;10.238;2023-04-12T07:23:49;99246.84;;;16.99;43.25
79138;BME280;68544;45.566;10.238;2023-04-12T07:26:16;99253.09;;;17.16;42.82
79138;BME280;68544;45.566;10.238;2023-04-12T07:28:42;99257.91;;;17.26;42.36
79138;BME280;68544;45.566;10.238;2023-04-12T07:31:07;99247.25;;;17.24;41.90
79138;BME280;68544;45.566;10.238;2023-04-12T07:33:33;99246.81;;;17.32;41.89
79138;BME280;68544;45.566;10.238;2023-04-12T07:36:00;99247.63;;;17.33;41.41
79138;BME280;68544;45.566;10.238;2023-04-12T07:38:26;99248.81;;;17.37;41.65
79138;BME280;68544;45.566;10.238;2023-04-12T07:40:53;99247.81;;;17.26;41.46
79138;BME280;68544;45.566;10.238;2023-04-12T07:43:18;99256.91;;;17.32;41.47
79138;BME280;68544;45.566;10.238;2023-04-12T07:45:43;99247.72;;;17.38;41.27
79138;BME280;68544;45.566;10.238;2023-04-12T07:48:10;99253.44;;;17.36;41.31
79138;BME280;68544;45.566;10.238;2023-04-12T07:50:36;99255.59;;;17.51;40.74
79138;BME280;68544;45.566;10.238;2023-04-12T07:53:18;99258.66;;;17.55;40.34
79138;BME280;68544;45.566;10.238;2023-04-12T07:55:44;99258.22;;;17.46;40.21
79138;BME280;68544;45.566;10.238;2023-04-12T07:58:10;99250.47;;;17.55;39.69
79138;BME280;68544;45.566;10.238;2023-04-12T08:00:35;99253.84;;;17.45;40.21
79138;BME280;68544;45.566;10.238;2023-04-12T08:03:00;99261.06;;;17.51;39.85
79138;BME280;68544;45.566;10.238;2023-04-12T08:05:26;99244.59;;;17.29;40.53
79138;BME280;68544;45.566;10.238;2023-04-12T08:07:51;99257.22;;;17.35;40.49
79138;BME280;68544;45.566;10.238;2023-04-12T08:10:16;99256.75;;;17.38;40.45
79138;BME280;68544;45.566;10.238;2023-04-12T08:12:42;99249.31;;;17.17;40.82
79138;BME280;68544;45.566;10.238;2023-04-12T08:15:08;99243.19;;;17.27;40.61
79138;BME280;68544;45.566;10.238;2023-04-12T08:17:33;99247.16;;;17.19;40.98
79138;BME280;68544;45.566;10.238;2023-04-12T08:19:59;99258.66;;;17.21;41.08
79138;BME280;68544;45.566;10.238;2023-04-12T08:22:24;99254.59;;;17.24;41.18
79138;BME280;68544;45.566;10.238;2023-04-12T08:24:50;99261.22;;;17.28;41.08
79138;BME280;68544;45.566;10.238;2023-04-12T08:27:15;99258.06;;;17.19;41.21
79138;BME280;68544;45.566;10.238;2023-04-12T08:29:41;99262.22;;;17.05;41.51
79138;BME280;68544;45.566;10.238;2023-04-12T08:32:06;99265.16;;;17.20;41.01
79138;BME280;68544;45.566;10.238;2023-04-12T08:34:33;99264.34;;;17.03;41.27
79138;BME280;68544;45.566;10.238;2023-04-12T08:36:59;99269.88;;;17.08;41.34
79138;BME280;68544;45.566;10.238;2023-04-12T08:39:24;99275.44;;;17.13;41.13
79138;BME280;68544;45.566;10.238;2023-04-12T08:41:53;99277.31;;;16.96;41.63
79138;BME280;68544;45.566;10.238;2023-04-12T08:44:39;99273.53;;;17.14;41.15
79138;BME280;68544;45.566;10.238;2023-04-12T08:47:06;99276.16;;;17.42;40.82
79138;BME280;68544;45.566;10.238;2023-04-12T08:49:33;99277.69;;;17.66;40.21
79138;BME280;68544;45.566;10.238;2023-04-12T08:52:06;99265.88;;;17.82;39.52
79138;BME280;68544;45.566;10.238;2023-04-12T08:54:33;99267.97;;;17.75;39.63
79138;BME280;68544;45.566;10.238;2023-04-12T08:57:01;99272.81;;;18.11;38.97
79138;BME280;68544;45.566;10.238;2023-04-12T08:59:28;99273.28;;;18.25;38.53
79138;BME280;68544;45.566;10.238;2023-04-12T09:01:54;99279.19;;;18.60;37.77
79138;BME280;68544;45.566;10.238;2023-04-12T09:04:21;99266.91;;;18.41;38.25
79138;BME280;68544;45.566;10.238;2023-04-12T09:06:46;99261.38;;;18.36;38.08
79138;BME280;68544;45.566;10.238;2023-04-12T09:09:12;99274.69;;;18.28;38.44
79138;BME280;68544;45.566;10.238;2023-04-12T09:11:38;99263.81;;;18.33;38.12
79138;BME280;68544;45.566;10.238;2023-04-12T09:14:20;99278.22;;;18.28;38.35
79138;BME280;68544;45.566;10.238;2023-04-12T09:16:46;99273.09;;;18.32;38.49
79138;BME280;68544;45.566;10.238;2023-04-12T09:19:11;99267.81;;;18.25;38.94
79138;BME280;68544;45.566;10.238;2023-04-12T09:21:50;99273.41;;;18.35;38.89
79138;BME280;68544;45.566;10.238;2023-04-12T09:24:16;99264.47;;;18.93;37.69
79138;BME280;68544;45.566;10.238;2023-04-12T09:26:41;99258.66;;;19.43;36.59
79138;BME280;68544;45.566;10.238;2023-04-12T09:29:20;99246.25;;;19.72;36.01
79138;BME280;68544;45.566;10.238;2023-04-12T09:31:59;99240.56;;;20.35;34.58
79138;BME280;68544;45.566;10.238;2023-04-12T09:34:25;99242.06;;;20.06;35.21
79138;BME280;68544;45.566;10.238;2023-04-12T09:36:50;99247.53;;;19.59;35.94
79138;BME280;68544;45.566;10.238;2023-04-12T09:39:16;99240.75;;;19.04;37.76
79138;BME280;68544;45.566;10.238;2023-04-12T09:41:41;99244.94;;;18.79;38.26
79138;BME280;68544;45.566;10.238;2023-04-12T09:44:06;99207.72;;;18.78;38.04
79138;BME280;68544;45.566;10.238;2023-04-12T09:46:32;99237.78;;;19.05;37.64
79138;BME280;68544;45.566;10.238;2023-04-12T09:48:58;99233.81;;;19.54;36.58
79138;BME280;68544;45.566;10.238;2023-04-12T09:51:31;99231.34;;;19.53;36.77
79138;BME280;68544;45.566;10.238;2023-04-12T09:53:59;99241.69;;;19.46;36.71
79138;BME280;68544;45.566;10.238;2023-04-12T09:56:28;99220.44;;;19.63;36.16
79138;BME280;68544;45.566;10.238;2023-04-12T09:58:56;99223.97;;;19.58;36.06
79138;BME280;68544;45.566;10.238;2023-04-12T10:01:23;99222.44;;;19.78;35.93
79138;BME280;68544;45.566;10.238;2023-04-12T10:03:49;99222.84;;;19.54;36.24
79138;BME280;68544;45.566;10.238;2023-04-12T10:06:15;99214.06;;;19.52;36.32
79138;BME280;68544;45.566;10.238;2023-04-12T10:08:43;99211.72;;;20.23;35.13
79138;BME280;68544;45.566;10.238;2023-04-12T10:11:08;99202.69;;;20.27;34.66
79138;BME280;68544;45.566;10.238;2023-04-12T10:13:35;99204.34;;;20.38;34.75
79138;BME280;68544;45.566;10.238;2023-04-12T10:16:03;99205.31;;;20.07;35.17
79138;BME280;68544;45.566;10.238;2023-04-12T10:18:30;99196.56;;;20.10;34.59
79138;BME280;68544;45.566;10.238;2023-04-12T10:20:56;99193.28;;;20.13;34.97
79138;BME280;68544;45.566;10.238;2023-04-12T10:23:22;99189.13;;;20.01;35.63
79138;BME280;68544;45.566;10.238;2023-04-12T10:25:47;99195.56;;;20.31;34.59
79138;BME280;68544;45.566;10.238;2023-04-12T10:28:15;99180.75;;;20.32;33.58
79138;BME280;68544;45.566;10.238;2023-04-12T10:30:41;99178.88;;;20.38;33.98
79138;BME280;68544;45.566;10.238;2023-04-12T10:33:14;99184.59;;;20.31;33.77
79138;BME280;68544;45.566;10.238;2023-04-12T10:38:12;99182.63;;;20.17;34.64
79138;BME280;68544;45.566;10.238;2023-04-12T10:40:37;99186.13;;;20.07;34.51
79138;BME280;68544;45.566;10.238;2023-04-12T10:45:43;99185.22;;;20.94;33.96
79138;BME280;68544;45.566;10.238;2023-04-12T10:53:39;99178.94;;;21.03;32.22
79138;BME280;68544;45.566;10.238;2023-04-12T10:59:00;99163.84;;;24.63;25.60
79138;BME280;68544;45.566;10.238;2023-04-12T11:01:29;99156.25;;;24.55;25.81
79138;BME280;68544;45.566;10.238;2023-04-12T11:04:14;99148.47;;;26.13;23.44
79138;BME280;68544;45.566;10.238;2023-04-12T11:09:30;99129.75;;;27.65;21.87
79138;BME280;68544;45.566;10.238;2023-04-12T11:14:41;99126.50;;;27.63;21.02
79138;BME280;68544;45.566;10.238;2023-04-12T11:19:32;99114.53;;;27.01;21.80
79138;BME280;68544;45.566;10.238;2023-04-12T11:21:59;99115.19;;;27.60;20.72
79138;BME280;68544;45.566;10.238;2023-04-12T11:24:25;99100.69;;;27.63;20.40
79138;BME280;68544;45.566;10.238;2023-04-12T11:26:51;99098.91;;;28.32;20.17
79138;BME280;68544;45.566;10.238;2023-04-12T11:29:23;99083.59;;;28.77;19.41
79138;BME280;68544;45.566;10.238;2023-04-12T11:31:48;99087.16;;;28.18;19.63
79138;BME280;68544;45.566;10.238;2023-04-12T11:34:17;99082.78;;;28.76;19.04
79138;BME280;68544;45.566;10.238;2023-04-12T11:36:46;99081.25;;;29.51;18.52
79138;BME280;68544;45.566;10.238;2023-04-12T11:39:12;99078.13;;;29.23;18.20
79138;BME280;68544;45.566;10.238;2023-04-12T11:41:44;99062.59;;;28.97;18.19
79138;BME280;68544;45.566;10.238;2023-04-12T11:44:11;99069.75;;;27.86;19.31
79138;BME280;68544;45.566;10.238;2023-04-12T11:46:37;99063.31;;;28.51;18.95
79138;BME280;68544;45.566;10.238;2023-04-12T11:49:03;99058.09;;;28.83;18.00
79138;BME280;68544;45.566;10.238;2023-04-12T11:51:28;99059.22;;;28.31;18.51
79138;BME280;68544;45.566;10.238;2023-04-12T11:53:55;99055.34;;;27.67;18.40
79138;BME280;68544;45.566;10.238;2023-04-12T11:56:21;99050.94;;;27.27;18.92
79138;BME280;68544;45.566;10.238;2023-04-12T11:58:47;99045.13;;;26.18;20.58
79138;BME280;68544;45.566;10.238;2023-04-12T12:01:13;99043.69;;;25.44;21.60
79138;BME280;68544;45.566;10.238;2023-04-12T12:03:40;99040.94;;;24.15;23.08
79138;BME280;68544;45.566;10.238;2023-04-12T12:06:07;99046.59;;;24.42;23.22
79138;BME280;68544;45.566;10.238;2023-04-12T12:08:32;99041.63;;;24.07;23.52
79138;BME280;68544;45.566;10.238;2023-04-12T12:10:58;99038.31;;;24.42;23.55
79138;BME280;68544;45.566;10.238;2023-04-12T12:13:23;99039.69;;;24.26;23.53
79138;BME280;68544;45.566;10.238;2023-04-12T12:15:50;99035.00;;;24.26;23.23
79138;BME280;68544;45.566;10.238;2023-04-12T12:18:15;99032.00;;;24.23;23.29
79138;BME280;68544;45.566;10.238;2023-04-12T12:20:41;99035.53;;;24.10;23.01
79138;BME280;68544;45.566;10.238;2023-04-12T12:23:07;99037.59;;;23.99;23.36
79138;BME280;68544;45.566;10.238;2023-04-12T12:25:32;99036.97;;;23.84;23.72
79138;BME280;68544;45.566;10.238;2023-04-12T12:27:57;99034.63;;;24.14;23.37
79138;BME280;68544;45.566;10.238;2023-04-12T12:30:23;99017.16;;;23.82;23.67
79138;BME280;68544;45.566;10.238;2023-04-12T12:32:49;99011.59;;;24.05;23.58
79138;BME280;68544;45.566;10.238;2023-04-12T12:35:14;99007.09;;;23.91;23.82
79138;BME280;68544;45.566;10.238;2023-04-12T12:37:51;99000.66;;;23.77;24.33
79138;BME280;68544;45.566;10.238;2023-04-12T12:40:17;99003.31;;;23.87;24.13
79138;BME280;68544;45.566;10.238;2023-04-12T12:42:50;99003.63;;;23.43;24.57
79138;BME280;68544;45.566;10.238;2023-04-12T12:45:18;99000.88;;;23.19;24.97
79138;BME280;68544;45.566;10.238;2023-04-12T12:47:56;99004.59;;;23.28;24.92
79138;BME280;68544;45.566;10.238;2023-04-12T12:50:24;99009.41;;;22.94;24.36
79138;BME280;68544;45.566;10.238;2023-04-12T12:52:50;99008.94;;;22.87;25.57
79138;BME280;68544;45.566;10.238;2023-04-12T12:55:16;99006.13;;;22.92;25.24
79138;BME280;68544;45.566;10.238;2023-04-12T12:57:46;98986.44;;;23.04;24.96
79138;BME280;68544;45.566;10.238;2023-04-12T13:00:12;98976.50;;;23.26;24.34
79138;BME280;68544;45.566;10.238;2023-04-12T13:02:39;98972.25;;;22.68;25.23
79138;BME280;68544;45.566;10.238;2023-04-12T13:05:05;98988.81;;;22.63;25.02
79138;BME280;68544;45.566;10.238;2023-04-12T13:07:30;98982.00;;;22.84;24.36
79138;BME280;68544;45.566;10.238;2023-04-12T13:09:56;98960.81;;;22.51;24.88
79138;BME280;68544;45.566;10.238;2023-04-12T13:12:21;98977.53;;;23.12;24.87
79138;BME280;68544;45.566;10.238;2023-04-12T13:14:47;98989.41;;;22.60;25.52
79138;BME280;68544;45.566;10.238;2023-04-12T13:17:13;98977.78;;;22.92;25.16